Saturday, October 20, 2018, 10:52 AM GMT
Back to Local

CWQH, Lennoxville

Location: , , Canada Lat: 45.367
Local Time: 10:52 AM GMT (10:52 GMT) Lon: -71.817
Time Zone: GMT Elev: 593 ft

Show me the last for .
Show Coded

Time T Td Feel RH Dir Speed Gust Alt SLP Vis Weather Sky Remarks
2018-10-20 10:00 51 34 - 52 170° 5 - - - 0 None
2018-10-20 09:00 51 34 - 51 180° 8 - - - 0 None
2018-10-20 08:00 52 35 - 51 190° 10 - - - 0 None
2018-10-20 07:00 53 35 - 50 190° 9 - - - 0 None
2018-10-20 06:00 53 38 - 56 190° 9 - - - 0 None
2018-10-20 05:00 51 40 - 65 200° 5 - - - 0 None
2018-10-20 04:00 54 39 - 57 190° 12 17 - - 0 None
2018-10-20 03:00 52 38 - 59 200° 7 - - - 0 None
2018-10-20 02:00 54 40 - 58 190° 7 - - - 0 None
2018-10-20 01:00 55 40 - 56 170° 6 - - - 0 None
2018-10-20 00:00 54 39 - 58 190° 9 - - - 0 None
2018-10-19 23:00 54 39 - 56 190° 12 - - - 0 None
2018-10-19 22:00 57 39 - 51 190° 8 - - - 0 Peak wind: 19 mph (17 kts) from 210° at 09 min
2018-10-19 21:00 58 39 - 49 200° 13 - - - 0 Peak wind: 19 mph (17 kts) from 220° at 32 min
2018-10-19 20:00 58 39 - 48 210° 13 18 - - 0 Peak wind: 21 mph (19 kts) from 210° at 08 min
2018-10-19 19:00 57 38 - 49 220° 14 22 - - 0 Peak wind: 21 mph (19 kts) from 220° at 58 min
2018-10-19 18:00 55 38 - 52 220° 14 22 - - 0 Peak wind: 23 mph (20 kts) from 200° at 17 min
2018-10-19 17:00 53 37 - 54 210° 13 20 - - 0 Peak wind: 23 mph (20 kts) from 210° at 15 min
2018-10-19 16:00 50 36 43 58 210° 17 24 - - 0 Peak wind: 24 mph (21 kts) from 210° at 58 min
2018-10-19 15:00 46 35 40 64 220° 14 - - - 0 Peak wind: 19 mph (17 kts) from 200° at 36 min
2018-10-19 14:00 42 32 35 66 200° 13 - - - 0 None
2018-10-19 13:00 42 32 37 68 200° 7 - - - 0 None
2018-10-19 12:00 39 32 33 75 200° 9 - - - 0 None
2018-10-19 11:00 35 31 - 85 - Calm - - - 0 None

Support USWX by starting your Amazon purchase here.